Time;durP1;ratioP1;P1;durP2;ratioP2;P2;SDS_P1;SDS_P2;PMS_P1;PMS_P2;Temp;Humidity;BMP_temperature;BMP_pressure;BME280_temperature;BME280_humidity;BME280_pressure;Samples;Min_cycle;Max_cycle;Signal;HPM_P1;HPM_P2
2021/04/28 00:01:41;;;;;;;2.60;1.80;;;;;;;;;;5111042;28;20197;-41
2021/04/28 00:04:08;;;;;;;2.00;1.77;;;;;;;;;;5116526;28;20185;-41
2021/04/28 00:06:34;;;;;;;2.90;2.05;;;;;;;;;;5115924;28;20199;-42
2021/04/28 00:09:00;;;;;;;2.58;1.63;;;;;;;;;;5116176;28;20181;-42
2021/04/28 00:11:27;;;;;;;2.25;1.80;;;;;;;;;;5115852;28;20173;-41
2021/04/28 00:13:53;;;;;;;1.85;1.60;;;;;;;;;;5116524;28;20583;-41
2021/04/28 00:16:20;;;;;;;2.55;1.75;;;;;;;;;;5113357;28;20549;-41
2021/04/28 00:18:49;;;;;;;2.10;1.60;;;;;;;;;;5096117;28;20166;-41
2021/04/28 00:21:15;;;;;;;3.63;1.90;;;;;;;;;;5105172;28;20189;-41
2021/04/28 00:23:41;;;;;;;1.90;1.70;;;;;;;;;;5115827;28;20195;-42
2021/04/28 00:26:08;;;;;;;1.50;1.40;;;;;;;;;;5095744;28;20209;-41
2021/04/28 00:28:34;;;;;;;3.47;1.70;;;;;;;;;;5095593;28;20507;-42
2021/04/28 00:31:00;;;;;;;2.60;1.80;;;;;;;;;;5101260;28;20192;-41
2021/04/28 00:33:26;;;;;;;2.00;1.70;;;;;;;;;;5113858;28;20181;-42
2021/04/28 00:35:52;;;;;;;1.95;1.40;;;;;;;;;;5115237;28;20189;-42
2021/04/28 00:38:18;;;;;;;1.65;1.55;;;;;;;;;;5115808;28;20169;-42
2021/04/28 00:40:44;;;;;;;3.83;1.90;;;;;;;;;;5114786;28;20560;-41
2021/04/28 00:43:10;;;;;;;1.92;1.75;;;;;;;;;;5115458;28;20204;-42
2021/04/28 00:45:37;;;;;;;1.67;1.58;;;;;;;;;;5115413;28;20284;-42
2021/04/28 00:48:05;;;;;;;2.75;1.50;;;;;;;;;;5115722;28;20206;-42
2021/04/28 00:50:32;;;;;;;2.05;1.85;;;;;;;;;;5106858;28;20250;-41
2021/04/28 00:53:00;;;;;;;2.45;1.73;;;;;;;;;;5114640;28;20192;-42
2021/04/28 00:55:26;;;;;;;2.47;1.63;;;;;;;;;;5115675;28;20483;-41
2021/04/28 00:57:52;;;;;;;3.42;1.80;;;;;;;;;;5115381;28;20169;-41
2021/04/28 01:00:19;;;;;;;2.05;1.60;;;;;;;;;;5115060;28;20555;-42
2021/04/28 01:02:45;;;;;;;2.67;1.80;;;;;;;;;;5114654;28;20184;-41
2021/04/28 01:05:12;;;;;;;2.03;1.60;;;;;;;;;;5115186;28;20170;-42
2021/04/28 01:07:38;;;;;;;2.28;1.80;;;;;;;;;;5108494;28;20571;-42
2021/04/28 01:10:07;;;;;;;1.98;1.40;;;;;;;;;;5100116;28;20574;-42
2021/04/28 01:12:33;;;;;;;1.70;1.50;;;;;;;;;;5114592;28;20177;-41
2021/04/28 01:14:59;;;;;;;1.65;1.52;;;;;;;;;;5115371;28;20158;-42
2021/04/28 01:17:25;;;;;;;2.42;1.45;;;;;;;;;;5114164;28;20177;-42
2021/04/28 01:19:51;;;;;;;1.50;1.40;;;;;;;;;;5115040;28;20180;-41
2021/04/28 01:22:18;;;;;;;2.25;1.63;;;;;;;;;;5109484;28;20174;-42
2021/04/28 01:24:44;;;;;;;1.67;1.58;;;;;;;;;;5104125;28;20181;-41
2021/04/28 01:27:13;;;;;;;1.52;1.42;;;;;;;;;;5114984;28;20192;-42
2021/04/28 01:29:40;;;;;;;2.35;1.88;;;;;;;;;;5114910;28;20274;-41
2021/04/28 01:32:07;;;;;;;2.80;1.58;;;;;;;;;;5114095;28;20179;-42
2021/04/28 01:34:33;;;;;;;2.53;1.70;;;;;;;;;;5118628;28;20169;-41
2021/04/28 01:36:59;;;;;;;1.83;1.73;;;;;;;;;;5118635;28;20195;-42
2021/04/28 01:39:25;;;;;;;1.67;1.58;;;;;;;;;;5105813;28;20200;-42
2021/04/28 01:41:52;;;;;;;1.63;1.40;;;;;;;;;;5118395;28;20471;-42
2021/04/28 01:44:21;;;;;;;2.05;1.60;;;;;;;;;;5119163;28;20219;-42
2021/04/28 01:46:47;;;;;;;1.70;1.55;;;;;;;;;;5118627;28;20542;-41
2021/04/28 01:49:13;;;;;;;2.20;1.50;;;;;;;;;;5118627;28;20202;-42
2021/04/28 01:51:40;;;;;;;2.63;1.83;;;;;;;;;;5117886;28;20226;-42
2021/04/28 01:54:07;;;;;;;2.28;1.60;;;;;;;;;;5115025;28;20181;-42
2021/04/28 01:56:33;;;;;;;1.73;1.52;;;;;;;;;;5098332;28;20545;-42
2021/04/28 01:59:00;;;;;;;3.17;1.75;;;;;;;;;;5098481;28;20196;-42
2021/04/28 02:01:27;;;;;;;1.90;1.70;;;;;;;;;;5110512;28;20205;-42
2021/04/28 02:03:56;;;;;;;2.15;1.63;;;;;;;;;;5117688;28;20185;-42
2021/04/28 02:06:22;;;;;;;2.00;1.60;;;;;;;;;;5117530;28;20208;-41
2021/04/28 02:08:48;;;;;;;1.85;1.60;;;;;;;;;;5117082;28;20248;-41
2021/04/28 02:11:15;;;;;;;2.67;1.60;;;;;;;;;;5109676;28;20298;-42
2021/04/28 02:13:44;;;;;;;1.45;1.35;;;;;;;;;;5117988;28;20175;-42
2021/04/28 02:16:11;;;;;;;2.10;1.92;;;;;;;;;;5117956;28;20177;-41
2021/04/28 02:18:37;;;;;;;1.95;1.80;;;;;;;;;;5113600;28;20184;-42
2021/04/28 02:21:04;;;;;;;1.65;1.55;;;;;;;;;;5110230;28;20343;-42
2021/04/28 02:23:35;;;;;;;1.85;1.40;;;;;;;;;;5116880;28;20206;-42
2021/04/28 02:26:02;;;;;;;2.15;1.60;;;;;;;;;;5097955;28;20276;-42
2021/04/28 02:28:27;;;;;;;2.35;1.60;;;;;;;;;;5097716;28;20174;-42
2021/04/28 02:30:53;;;;;;;3.30;1.73;;;;;;;;;;5102782;28;20254;-42
2021/04/28 02:33:19;;;;;;;1.77;1.65;;;;;;;;;;5117429;28;20181;-41
2021/04/28 02:35:45;;;;;;;1.85;1.65;;;;;;;;;;5117801;28;20576;-41
2021/04/28 02:38:14;;;;;;;2.60;1.60;;;;;;;;;;5108639;28;20553;-42
2021/04/28 02:40:41;;;;;;;1.40;1.30;;;;;;;;;;5097139;28;20559;-42
2021/04/28 02:43:10;;;;;;;1.40;1.30;;;;;;;;;;5114676;28;20173;-42
2021/04/28 02:45:36;;;;;;;1.65;1.38;;;;;;;;;;5117054;28;20208;-42
2021/04/28 02:48:02;;;;;;;2.28;1.65;;;;;;;;;;5117603;28;20489;-42
2021/04/28 02:50:29;;;;;;;1.60;1.50;;;;;;;;;;5117550;28;20265;-42
2021/04/28 02:52:56;;;;;;;1.65;1.52;;;;;;;;;;5108345;28;20265;-41
2021/04/28 02:55:22;;;;;;;2.00;1.80;;;;;;;;;;5117524;28;20174;-42
2021/04/28 02:57:49;;;;;;;1.50;1.38;;;;;;;;;;5117681;28;20181;-42
2021/04/28 03:00:17;;;;;;;1.90;1.50;;;;;;;;;;5117358;28;20222;-42
2021/04/28 03:02:43;;;;;;;1.40;1.30;;;;;;;;;;5116742;28;20181;-42
2021/04/28 03:05:16;;;;;;;2.00;1.77;;;;;;;;;;5117031;28;20238;-42
2021/04/28 03:07:42;;;;;;;1.88;1.70;;;;;;;;;;5113971;28;20177;-42
2021/04/28 03:10:09;;;;;;;1.50;1.40;;;;;;;;;;5117063;28;20212;-41
2021/04/28 03:12:35;;;;;;;1.60;1.50;;;;;;;;;;5116548;28;20182;-42
2021/04/28 03:15:01;;;;;;;1.50;1.40;;;;;;;;;;5117135;28;20427;-42
2021/04/28 03:17:27;;;;;;;1.40;1.30;;;;;;;;;;5116960;28;20185;-41
2021/04/28 03:19:57;;;;;;;1.77;1.38;;;;;;;;;;5116617;28;20191;-42
2021/04/28 03:22:24;;;;;;;1.73;1.63;;;;;;;;;;5115774;28;20185;-42
2021/04/28 03:24:50;;;;;;;2.75;1.30;;;;;;;;;;5117144;28;20172;-42
2021/04/28 03:27:17;;;;;;;1.95;1.70;;;;;;;;;;5116003;28;20236;-42
2021/04/28 03:29:43;;;;;;;1.73;1.30;;;;;;;;;;5117124;28;20172;-42
2021/04/28 03:32:09;;;;;;;5.97;1.65;;;;;;;;;;5115771;28;20177;-42
2021/04/28 03:34:35;;;;;;;1.48;1.38;;;;;;;;;;5116734;28;20672;-41
2021/04/28 03:37:02;;;;;;;2.65;1.60;;;;;;;;;;5116207;28;20177;-42
2021/04/28 03:39:29;;;;;;;2.88;1.60;;;;;;;;;;5116687;28;20613;-42
2021/04/28 03:41:55;;;;;;;1.48;1.38;;;;;;;;;;5116307;28;20173;-42
2021/04/28 03:44:21;;;;;;;1.52;1.42;;;;;;;;;;5116205;28;20184;-41
2021/04/28 03:46:47;;;;;;;1.60;1.50;;;;;;;;;;5116029;28;20236;-42
2021/04/28 03:49:15;;;;;;;2.17;1.70;;;;;;;;;;5116510;28;20197;-41
2021/04/28 03:51:41;;;;;;;2.15;1.63;;;;;;;;;;5115449;28;20577;-42
2021/04/28 03:54:07;;;;;;;1.88;1.40;;;;;;;;;;5116522;28;20216;-42
2021/04/28 03:56:33;;;;;;;1.52;1.42;;;;;;;;;;5115365;28;20749;-42
2021/04/28 03:58:59;;;;;;;1.60;1.50;;;;;;;;;;5116549;28;20549;-41
2021/04/28 04:01:25;;;;;;;1.40;1.30;;;;;;;;;;5114825;28;20211;-42
2021/04/28 04:03:50;;;;;;;2.17;1.70;;;;;;;;;;5115694;28;20180;-41
2021/04/28 04:06:16;;;;;;;1.55;1.42;;;;;;;;;;5115647;28;20197;-42
2021/04/28 04:08:42;;;;;;;1.92;1.77;;;;;;;;;;5116144;28;20602;-41
2021/04/28 04:11:08;;;;;;;1.80;1.70;;;;;;;;;;5115792;28;20161;-42
2021/04/28 04:13:35;;;;;;;4.28;1.95;;;;;;;;;;5113232;28;20584;-42
2021/04/28 04:16:01;;;;;;;1.88;1.67;;;;;;;;;;5102329;28;20211;-42
2021/04/28 04:18:27;;;;;;;1.88;1.77;;;;;;;;;;5115872;28;20201;-42
2021/04/28 04:20:53;;;;;;;2.38;1.63;;;;;;;;;;5114793;28;20200;-42
2021/04/28 04:23:19;;;;;;;4.60;2.10;;;;;;;;;;5115651;28;20260;-42
2021/04/28 04:25:45;;;;;;;15.73;3.40;;;;;;;;;;5096844;28;20305;-42
2021/04/28 04:28:11;;;;;;;15.60;3.95;;;;;;;;;;5095744;28;20214;-42
2021/04/28 04:30:37;;;;;;;12.85;3.42;;;;;;;;;;5099035;28;20215;-42
2021/04/28 04:33:03;;;;;;;17.88;3.20;;;;;;;;;;5114483;28;20181;-42
2021/04/28 04:35:29;;;;;;;13.25;2.88;;;;;;;;;;5115096;28;20226;-42
2021/04/28 04:37:55;;;;;;;5.18;2.60;;;;;;;;;;5115417;28;20193;-42
2021/04/28 04:40:21;;;;;;;9.68;3.22;;;;;;;;;;5115396;28;20232;-42
2021/04/28 04:42:47;;;;;;;8.68;3.00;;;;;;;;;;5099796;28;20173;-42
2021/04/28 04:45:13;;;;;;;5.03;2.60;;;;;;;;;;5115578;28;20723;-42
2021/04/28 04:47:40;;;;;;;8.70;2.70;;;;;;;;;;5115485;28;20763;-41
2021/04/28 04:50:07;;;;;;;6.82;2.40;;;;;;;;;;5114861;28;20184;-41
2021/04/28 04:52:33;;;;;;;10.85;2.97;;;;;;;;;;5113760;28;20268;-41
2021/04/28 04:54:59;;;;;;;5.80;2.88;;;;;;;;;;5106585;28;20178;-42
2021/04/28 04:57:26;;;;;;;8.45;3.25;;;;;;;;;;5113435;28;20664;-42
2021/04/28 04:59:52;;;;;;;7.03;2.92;;;;;;;;;;5112054;28;20181;-41
2021/04/28 05:02:18;;;;;;;7.45;2.80;;;;;;;;;;5112783;28;20188;-42
2021/04/28 05:04:45;;;;;;;4.00;2.38;;;;;;;;;;5111441;28;20187;-42
2021/04/28 05:07:11;;;;;;;8.98;2.80;;;;;;;;;;5112879;28;20244;-42
2021/04/28 05:09:37;;;;;;;8.70;2.95;;;;;;;;;;5112571;28;20243;-42
2021/04/28 05:12:03;;;;;;;6.30;2.80;;;;;;;;;;5113006;28;20181;-42
2021/04/28 05:14:29;;;;;;;6.03;2.67;;;;;;;;;;5109463;28;20196;-41
2021/04/28 05:16:55;;;;;;;6.18;2.60;;;;;;;;;;5114924;28;20177;-42
2021/04/28 05:19:21;;;;;;;5.30;2.55;;;;;;;;;;5113198;28;20203;-42
2021/04/28 05:21:47;;;;;;;4.20;2.60;;;;;;;;;;5086668;28;20235;-42
2021/04/28 05:24:12;;;;;;;4.43;2.65;;;;;;;;;;5106796;28;20249;-42
2021/04/28 05:26:38;;;;;;;5.53;2.67;;;;;;;;;;5097883;28;20568;-42
2021/04/28 05:29:05;;;;;;;3.65;2.42;;;;;;;;;;5095609;28;20176;-42
2021/04/28 05:31:31;;;;;;;3.55;2.50;;;;;;;;;;5112548;28;20220;-42
2021/04/28 05:33:58;;;;;;;6.88;2.72;;;;;;;;;;5099320;28;20174;-41
2021/04/28 05:36:24;;;;;;;4.88;2.65;;;;;;;;;;5105903;28;20282;-41
2021/04/28 05:38:51;;;;;;;6.40;2.97;;;;;;;;;;5099365;28;20181;-41
2021/04/28 05:41:17;;;;;;;4.10;2.60;;;;;;;;;;5109110;28;20446;-42
2021/04/28 05:43:44;;;;;;;6.65;2.50;;;;;;;;;;5110995;28;20174;-41
2021/04/28 05:46:10;;;;;;;5.13;3.20;;;;;;;;;;5113691;28;20536;-42
2021/04/28 05:48:37;;;;;;;4.40;2.65;;;;;;;;;;5113840;28;20181;-42
2021/04/28 05:51:03;;;;;;;3.40;2.53;;;;;;;;;;5113635;28;20173;-41
2021/04/28 05:53:29;;;;;;;6.78;2.92;;;;;;;;;;5114901;28;20597;-41
2021/04/28 05:55:55;;;;;;;3.85;2.38;;;;;;;;;;5114072;28;20255;-41
2021/04/28 05:58:21;;;;;;;5.43;2.30;;;;;;;;;;5113964;28;20189;-42
2021/04/28 06:00:47;;;;;;;3.40;2.30;;;;;;;;;;5114002;28;20209;-42
2021/04/28 06:03:13;;;;;;;5.28;2.90;;;;;;;;;;5114349;28;20177;-42
2021/04/28 06:05:39;;;;;;;3.25;2.80;;;;;;;;;;5098054;28;20193;-42
2021/04/28 06:08:05;;;;;;;5.72;2.50;;;;;;;;;;5114533;28;20181;-42
2021/04/28 06:10:31;;;;;;;3.85;2.25;;;;;;;;;;5114169;28;20181;-42
2021/04/28 06:12:57;;;;;;;3.63;2.47;;;;;;;;;;5114170;28;20185;-41
2021/04/28 06:15:23;;;;;;;3.55;2.53;;;;;;;;;;5114113;28;20595;-41
2021/04/28 06:17:49;;;;;;;4.78;2.50;;;;;;;;;;5106896;28;20216;-41
2021/04/28 06:20:16;;;;;;;4.15;2.80;;;;;;;;;;5115332;28;20551;-41
2021/04/28 06:22:42;;;;;;;3.65;2.72;;;;;;;;;;5117462;28;20643;-41
2021/04/28 06:25:09;;;;;;;3.63;2.88;;;;;;;;;;5118342;28;20161;-41
2021/04/28 06:27:35;;;;;;;3.58;2.58;;;;;;;;;;5118058;28;20210;-44
2021/04/28 06:30:02;;;;;;;5.25;2.50;;;;;;;;;;5106962;28;20177;-41
2021/04/28 06:32:28;;;;;;;3.17;2.42;;;;;;;;;;5099103;28;20208;-41
2021/04/28 06:34:54;;;;;;;4.10;2.80;;;;;;;;;;5115927;28;20181;-41
2021/04/28 06:37:20;;;;;;;3.17;2.70;;;;;;;;;;5117670;28;20237;-41
2021/04/28 06:39:47;;;;;;;2.65;2.28;;;;;;;;;;5117998;28;20184;-41
2021/04/28 06:42:14;;;;;;;3.63;2.40;;;;;;;;;;5117135;28;20177;-42
2021/04/28 06:44:40;;;;;;;3.08;2.30;;;;;;;;;;5116500;28;20181;-42
2021/04/28 06:47:06;;;;;;;3.92;2.78;;;;;;;;;;5118037;28;20243;-42
2021/04/28 06:49:32;;;;;;;2.58;2.38;;;;;;;;;;5117547;28;20204;-42
2021/04/28 06:51:58;;;;;;;3.55;2.40;;;;;;;;;;5116350;28;20264;-42
2021/04/28 06:54:24;;;;;;;4.55;2.65;;;;;;;;;;5117831;28;20191;-42
2021/04/28 06:56:51;;;;;;;2.97;2.53;;;;;;;;;;5117198;28;20509;-42
2021/04/28 06:59:18;;;;;;;3.17;2.35;;;;;;;;;;5116810;28;20573;-41
2021/04/28 07:01:45;;;;;;;3.15;2.45;;;;;;;;;;5116740;28;20185;-42
2021/04/28 07:04:12;;;;;;;2.83;2.50;;;;;;;;;;5117425;28;20161;-42
2021/04/28 07:06:38;;;;;;;2.72;2.40;;;;;;;;;;5097248;28;20484;-42
2021/04/28 07:09:05;;;;;;;3.35;2.30;;;;;;;;;;5116660;28;20185;-41
2021/04/28 07:11:32;;;;;;;3.63;2.67;;;;;;;;;;5116362;28;20241;-41
2021/04/28 07:13:58;;;;;;;2.58;2.33;;;;;;;;;;5116417;28;20579;-42
2021/04/28 07:16:24;;;;;;;3.45;2.22;;;;;;;;;;5117027;28;20181;-42
2021/04/28 07:18:50;;;;;;;2.80;2.35;;;;;;;;;;5116529;28;20556;-42
2021/04/28 07:21:16;;;;;;;2.65;2.30;;;;;;;;;;5114813;28;20189;-42
2021/04/28 07:23:42;;;;;;;2.60;2.38;;;;;;;;;;5116627;28;20192;-42
2021/04/28 07:26:09;;;;;;;4.60;2.13;;;;;;;;;;5111563;28;20465;-42
2021/04/28 07:28:35;;;;;;;3.00;2.30;;;;;;;;;;5088054;28;20835;-42
2021/04/28 07:31:01;;;;;;;4.10;2.45;;;;;;;;;;5116613;28;20166;-41
2021/04/28 07:33:27;;;;;;;5.70;2.42;;;;;;;;;;5116447;28;20230;-42
2021/04/28 07:35:53;;;;;;;5.00;2.60;;;;;;;;;;5116507;28;20533;-42
2021/04/28 07:38:20;;;;;;;2.83;2.30;;;;;;;;;;5114798;28;20248;-42
2021/04/28 07:40:46;;;;;;;182.30;39.30;;;;;;;;;;5103179;28;20196;-42
2021/04/28 07:43:12;;;;;;;365.92;75.05;;;;;;;;;;5113666;28;20177;-42
2021/04/28 07:45:38;;;;;;;447.17;101.78;;;;;;;;;;5116227;28;20200;-42
2021/04/28 07:48:09;;;;;;;418.70;102.05;;;;;;;;;;5116542;28;20200;-42
2021/04/28 07:50:36;;;;;;;387.25;88.13;;;;;;;;;;5116171;28;20477;-41
2021/04/28 07:53:02;;;;;;;345.00;79.07;;;;;;;;;;5115847;28;20173;-41
2021/04/28 07:55:29;;;;;;;271.58;64.28;;;;;;;;;;5113006;28;21487;-42
2021/04/28 07:57:55;;;;;;;259.80;55.30;;;;;;;;;;5105589;28;20200;-42
2021/04/28 08:00:22;;;;;;;226.13;49.90;;;;;;;;;;5116147;28;20212;-42
2021/04/28 08:02:48;;;;;;;189.85;42.92;;;;;;;;;;5114909;28;20256;-42
2021/04/28 08:05:14;;;;;;;173.20;42.70;;;;;;;;;;5115701;28;20181;-42
2021/04/28 08:07:40;;;;;;;170.73;42.63;;;;;;;;;;5115367;28;20699;-42
2021/04/28 08:10:06;;;;;;;154.93;39.95;;;;;;;;;;5115408;28;20188;-42
2021/04/28 08:12:32;;;;;;;150.95;39.22;;;;;;;;;;5110304;28;20477;-42
2021/04/28 08:14:58;;;;;;;138.65;34.65;;;;;;;;;;5115689;28;20173;-42
2021/04/28 08:17:24;;;;;;;147.38;33.33;;;;;;;;;;5115810;28;20192;-42
2021/04/28 08:19:50;;;;;;;111.05;29.27;;;;;;;;;;5115181;28;20181;-42
2021/04/28 08:22:16;;;;;;;102.95;27.40;;;;;;;;;;5114806;28;20184;-42
2021/04/28 08:24:42;;;;;;;85.43;24.42;;;;;;;;;;5113621;28;20193;-41
2021/04/28 08:27:09;;;;;;;90.05;24.20;;;;;;;;;;5108421;28;20251;-41
2021/04/28 08:29:35;;;;;;;84.20;22.48;;;;;;;;;;5114113;28;20519;-41
2021/04/28 08:32:01;;;;;;;82.03;23.48;;;;;;;;;;5114857;28;20173;-42
2021/04/28 08:34:27;;;;;;;73.78;22.65;;;;;;;;;;5115980;28;20189;-42
2021/04/28 08:36:53;;;;;;;69.78;21.27;;;;;;;;;;5113587;28;20215;-42
2021/04/28 08:39:19;;;;;;;76.55;21.90;;;;;;;;;;5115226;28;20181;-42
2021/04/28 08:41:48;;;;;;;66.07;19.60;;;;;;;;;;5114478;28;20595;-42
2021/04/28 08:44:14;;;;;;;63.72;19.45;;;;;;;;;;5096337;28;20461;-42
2021/04/28 08:46:40;;;;;;;60.83;20.02;;;;;;;;;;5095336;28;20208;-41
2021/04/28 08:49:07;;;;;;;59.00;19.67;;;;;;;;;;5108151;28;20482;-41
2021/04/28 08:51:33;;;;;;;57.97;18.30;;;;;;;;;;5114550;28;20618;-42
2021/04/28 08:53:59;;;;;;;60.70;19.38;;;;;;;;;;5115178;28;20214;-42
2021/04/28 08:56:25;;;;;;;52.42;17.77;;;;;;;;;;5114919;28;20177;-42
2021/04/28 08:58:51;;;;;;;59.70;18.95;;;;;;;;;;5112472;28;20221;-42
2021/04/28 09:01:30;;;;;;;51.80;17.52;;;;;;;;;;5114845;28;20206;-42
2021/04/28 09:04:00;;;;;;;45.40;17.20;;;;;;;;;;5115378;28;20449;-42
2021/04/28 09:06:30;;;;;;;54.95;17.77;;;;;;;;;;5114601;28;20197;-42
2021/04/28 09:08:57;;;;;;;45.17;16.20;;;;;;;;;;5114911;28;20201;-42
2021/04/28 09:11:33;;;;;;;41.55;16.02;;;;;;;;;;5097928;28;20231;-42
2021/04/28 09:14:18;;;;;;;39.80;15.25;;;;;;;;;;5094730;28;20434;-42
2021/04/28 09:16:45;;;;;;;41.80;15.93;;;;;;;;;;5094602;28;20174;-42
2021/04/28 09:19:27;;;;;;;43.20;15.43;;;;;;;;;;5109141;28;20183;-42
2021/04/28 09:22:00;;;;;;;42.45;16.13;;;;;;;;;;5114178;28;20212;-41
2021/04/28 09:24:28;;;;;;;39.55;14.27;;;;;;;;;;5114229;28;20556;-42
2021/04/28 09:26:55;;;;;;;36.90;14.88;;;;;;;;;;5112254;28;20200;-42
2021/04/28 09:29:23;;;;;;;36.97;14.02;;;;;;;;;;5114711;28;20184;-42
2021/04/28 09:31:55;;;;;;;36.13;13.73;;;;;;;;;;5114610;28;20176;-42
2021/04/28 09:34:26;;;;;;;40.22;15.07;;;;;;;;;;5113989;28;20197;-42
2021/04/28 09:36:59;;;;;;;32.92;12.73;;;;;;;;;;5112849;28;20184;-42
2021/04/28 09:39:25;;;;;;;28.35;10.65;;;;;;;;;;5110823;28;20177;-41
2021/04/28 09:41:54;;;;;;;28.92;11.90;;;;;;;;;;5113786;28;20180;-41
2021/04/28 09:44:20;;;;;;;28.33;11.10;;;;;;;;;;5114669;28;20158;-41
2021/04/28 09:47:07;;;;;;;27.85;10.98;;;;;;;;;;5114490;28;20530;-41
2021/04/28 09:50:02;;;;;;;24.60;10.32;;;;;;;;;;5113942;28;20314;-41
2021/04/28 09:52:31;;;;;;;25.50;10.80;;;;;;;;;;5093159;28;20238;-41
2021/04/28 09:55:04;;;;;;;26.02;10.88;;;;;;;;;;5112229;28;20177;-42
2021/04/28 09:57:34;;;;;;;23.90;10.75;;;;;;;;;;5116405;28;20554;-42
2021/04/28 10:00:01;;;;;;;27.15;11.02;;;;;;;;;;5100692;28;20177;-42
2021/04/28 10:02:28;;;;;;;25.02;10.63;;;;;;;;;;5117823;28;20176;-42
2021/04/28 10:05:14;;;;;;;25.52;10.23;;;;;;;;;;5113537;28;20189;-42
2021/04/28 10:07:40;;;;;;;24.52;9.75;;;;;;;;;;5112150;28;20200;-42
2021/04/28 10:10:06;;;;;;;24.33;9.88;;;;;;;;;;5118767;28;20161;-42
2021/04/28 10:12:32;;;;;;;19.85;9.38;;;;;;;;;;5099049;28;20173;-42
2021/04/28 10:14:58;;;;;;;22.52;8.98;;;;;;;;;;5118078;28;20177;-42
2021/04/28 10:17:24;;;;;;;20.15;8.60;;;;;;;;;;5117016;28;20212;-42
2021/04/28 10:19:50;;;;;;;35.45;19.73;;;;;;;;;;5105746;28;20467;-42
2021/04/28 10:22:18;;;;;;;31.73;16.15;;;;;;;;;;5117408;28;20553;-42
2021/04/28 10:24:47;;;;;;;41.50;20.25;;;;;;;;;;5118166;28;20177;-42
2021/04/28 10:27:16;;;;;;;41.60;20.42;;;;;;;;;;5099768;28;20201;-42
2021/04/28 10:29:42;;;;;;;35.85;17.90;;;;;;;;;;5117556;28;20180;-42
2021/04/28 10:32:09;;;;;;;33.10;19.23;;;;;;;;;;5114374;28;20600;-42
2021/04/28 10:34:54;;;;;;;40.88;19.45;;;;;;;;;;5118044;28;20248;-42
2021/04/28 10:37:22;;;;;;;36.92;19.73;;;;;;;;;;5107230;28;20584;-42
2021/04/28 10:39:48;;;;;;;45.38;21.73;;;;;;;;;;5117664;28;20468;-42
2021/04/28 10:42:40;;;;;;;39.10;20.77;;;;;;;;;;5116397;28;20528;-42
2021/04/28 10:45:11;;;;;;;33.72;19.48;;;;;;;;;;5112640;28;20232;-42
2021/04/28 10:47:42;;;;;;;38.65;19.02;;;;;;;;;;5115815;28;20305;-42
2021/04/28 10:50:14;;;;;;;33.20;18.55;;;;;;;;;;5110989;28;20184;-42
2021/04/28 10:52:41;;;;;;;36.50;19.27;;;;;;;;;;5109303;28;20177;-42
2021/04/28 10:55:27;;;;;;;40.38;17.60;;;;;;;;;;5116886;28;20184;-42
2021/04/28 10:57:53;;;;;;;32.33;16.40;;;;;;;;;;5116279;28;20181;-42
2021/04/28 11:00:19;;;;;;;32.08;16.15;;;;;;;;;;5108840;28;20281;-42
2021/04/28 11:02:45;;;;;;;30.90;15.75;;;;;;;;;;5082876;28;20181;-42
2021/04/28 11:05:21;;;;;;;31.30;16.02;;;;;;;;;;5116267;28;20723;-42
2021/04/28 11:07:52;;;;;;;27.27;14.88;;;;;;;;;;5116958;28;20180;-42
2021/04/28 11:10:30;;;;;;;29.50;15.57;;;;;;;;;;5117452;28;20165;-42
2021/04/28 11:13:02;;;;;;;27.20;15.07;;;;;;;;;;5117104;28;20181;-42
2021/04/28 11:15:48;;;;;;;32.03;15.10;;;;;;;;;;5107955;28;20184;-42
2021/04/28 11:18:31;;;;;;;28.65;15.60;;;;;;;;;;5116346;28;20184;-42
2021/04/28 11:21:09;;;;;;;24.42;14.43;;;;;;;;;;5116716;28;20512;-42
2021/04/28 11:23:35;;;;;;;27.70;14.88;;;;;;;;;;5099192;28;20177;-42
2021/04/28 11:26:20;;;;;;;25.60;14.32;;;;;;;;;;5116651;28;20189;-42
2021/04/28 11:28:49;;;;;;;25.15;14.27;;;;;;;;;;5109547;28;20173;-42
2021/04/28 11:31:22;;;;;;;27.48;14.15;;;;;;;;;;5116666;28;20236;-42
2021/04/28 11:33:48;;;;;;;25.40;14.27;;;;;;;;;;5117101;28;20222;-42
2021/04/28 11:36:15;;;;;;;22.80;12.15;;;;;;;;;;5115819;28;20185;-42
2021/04/28 11:38:44;;;;;;;24.17;12.48;;;;;;;;;;5116679;28;20197;-42
2021/04/28 11:41:17;;;;;;;23.48;13.10;;;;;;;;;;5110267;28;20425;-42
2021/04/28 11:43:48;;;;;;;22.63;12.15;;;;;;;;;;5106579;28;20497;-42
2021/04/28 11:46:17;;;;;;;23.10;12.50;;;;;;;;;;5112400;28;20194;-42
2021/04/28 11:48:44;;;;;;;22.23;12.90;;;;;;;;;;5108763;28;20511;-42
2021/04/28 11:51:12;;;;;;;22.90;12.00;;;;;;;;;;5114373;28;20482;-42
2021/04/28 11:53:46;;;;;;;23.33;12.27;;;;;;;;;;5116025;28;20177;-42
2021/04/28 11:56:25;;;;;;;23.85;11.38;;;;;;;;;;5102688;28;20177;-42
2021/04/28 11:58:51;;;;;;;23.20;10.45;;;;;;;;;;5114371;28;20181;-42
2021/04/28 12:01:17;;;;;;;15.57;10.18;;;;;;;;;;5115281;28;20192;-42
2021/04/28 12:03:54;;;;;;;17.98;10.02;;;;;;;;;;5116062;28;20595;-42
2021/04/28 12:06:30;;;;;;;19.40;9.93;;;;;;;;;;5115637;28;20220;-42
2021/04/28 12:09:09;;;;;;;13.27;7.95;;;;;;;;;;5110756;28;20517;-42
2021/04/28 12:11:36;;;;;;;14.60;8.20;;;;;;;;;;5100833;28;20181;-42
2021/04/28 12:14:02;;;;;;;11.27;7.50;;;;;;;;;;5114970;28;20177;-42
2021/04/28 12:16:28;;;;;;;12.38;7.90;;;;;;;;;;5115199;28;20170;-42
2021/04/28 12:19:10;;;;;;;14.32;7.93;;;;;;;;;;5115879;28;20207;-42
2021/04/28 12:21:36;;;;;;;14.43;8.95;;;;;;;;;;5115107;28;20260;-42
2021/04/28 12:24:02;;;;;;;14.57;8.25;;;;;;;;;;5115661;28;20185;-42
2021/04/28 12:26:29;;;;;;;18.13;8.55;;;;;;;;;;5115966;28;20294;-42
2021/04/28 12:28:55;;;;;;;14.45;8.23;;;;;;;;;;5097814;28;20209;-42
2021/04/28 12:31:39;;;;;;;17.00;8.40;;;;;;;;;;5115364;28;20179;-42
2021/04/28 12:34:05;;;;;;;14.93;8.15;;;;;;;;;;5115540;28;20472;-42
2021/04/28 12:36:31;;;;;;;15.45;8.32;;;;;;;;;;5114868;28;20183;-42
2021/04/28 12:38:58;;;;;;;13.80;7.88;;;;;;;;;;5115362;28;20428;-42
2021/04/28 12:41:23;;;;;;;13.52;8.20;;;;;;;;;;5114966;28;20276;-42
2021/04/28 12:43:50;;;;;;;13.10;7.75;;;;;;;;;;5115725;28;20265;-42
2021/04/28 12:46:17;;;;;;;13.32;7.95;;;;;;;;;;5115708;28;20197;-42
2021/04/28 12:49:02;;;;;;;12.88;7.43;;;;;;;;;;5115587;28;20173;-42
2021/04/28 12:51:28;;;;;;;15.63;7.72;;;;;;;;;;5111317;28;20181;-42
2021/04/28 12:53:55;;;;;;;11.02;7.35;;;;;;;;;;5115420;28;20177;-42
2021/04/28 12:56:21;;;;;;;13.68;7.20;;;;;;;;;;5115592;28;20177;-42
2021/04/28 12:58:50;;;;;;;10.48;7.50;;;;;;;;;;5115336;28;20501;-42
2021/04/28 13:01:20;;;;;;;10.55;7.13;;;;;;;;;;5114939;28;20557;-42
2021/04/28 13:03:46;;;;;;;11.35;6.70;;;;;;;;;;5107552;28;20181;-42
2021/04/28 13:06:22;;;;;;;11.93;7.25;;;;;;;;;;5108424;28;20209;-42
2021/04/28 13:08:48;;;;;;;12.82;7.32;;;;;;;;;;5115035;28;20202;-42
2021/04/28 13:11:14;;;;;;;12.50;7.03;;;;;;;;;;5114703;28;20173;-42
2021/04/28 13:13:40;;;;;;;10.20;6.97;;;;;;;;;;5114701;28;20207;-42
2021/04/28 13:16:07;;;;;;;10.20;7.15;;;;;;;;;;5114835;28;20209;-42
2021/04/28 13:18:51;;;;;;;10.77;6.63;;;;;;;;;;5114317;28;20852;-42
2021/04/28 13:21:24;;;;;;;12.63;6.30;;;;;;;;;;5114242;28;20181;-42
2021/04/28 13:24:03;;;;;;;11.35;6.13;;;;;;;;;;5097526;28;20181;-42
2021/04/28 13:26:30;;;;;;;10.85;6.75;;;;;;;;;;5115132;28;20275;-42
2021/04/28 13:28:57;;;;;;;14.48;6.15;;;;;;;;;;5104903;28;20214;-42
2021/04/28 13:31:27;;;;;;;12.07;5.85;;;;;;;;;;5121241;28;20260;-42
2021/04/28 13:33:55;;;;;;;11.18;6.70;;;;;;;;;;5121990;28;20173;-42
2021/04/28 13:36:22;;;;;;;11.02;5.88;;;;;;;;;;5107876;28;20185;-42
2021/04/28 13:38:53;;;;;;;11.40;6.20;;;;;;;;;;5118414;28;20184;-42
2021/04/28 13:41:19;;;;;;;10.43;6.22;;;;;;;;;;5100939;28;20560;-42
2021/04/28 13:43:45;;;;;;;13.38;6.20;;;;;;;;;;5107993;28;20420;-42
2021/04/28 13:46:11;;;;;;;10.35;5.57;;;;;;;;;;5106289;28;20204;-42
2021/04/28 13:48:38;;;;;;;11.35;6.00;;;;;;;;;;5121634;28;20205;-42
2021/04/28 13:51:05;;;;;;;11.50;5.72;;;;;;;;;;5121222;28;20263;-42
2021/04/28 13:53:31;;;;;;;14.13;6.10;;;;;;;;;;5121491;28;20177;-42
2021/04/28 13:55:57;;;;;;;11.07;6.28;;;;;;;;;;5120686;28;20195;-42
2021/04/28 13:58:23;;;;;;;12.10;5.95;;;;;;;;;;5121410;28;20183;-42
2021/04/28 14:00:49;;;;;;;12.00;5.80;;;;;;;;;;5120854;28;20406;-42
2021/04/28 14:03:15;;;;;;;8.75;5.28;;;;;;;;;;5120227;28;20607;-42
2021/04/28 14:05:41;;;;;;;9.07;5.45;;;;;;;;;;5121447;28;20184;-42
2021/04/28 14:08:07;;;;;;;7.28;5.40;;;;;;;;;;5121135;28;20587;-42
2021/04/28 14:10:33;;;;;;;8.13;5.22;;;;;;;;;;5092342;28;20303;-42
2021/04/28 14:12:59;;;;;;;9.27;5.63;;;;;;;;;;5121182;28;20169;-43
2021/04/28 14:15:25;;;;;;;9.00;5.30;;;;;;;;;;5121856;28;20490;-42
2021/04/28 14:17:52;;;;;;;7.90;5.38;;;;;;;;;;5121509;28;20169;-43
2021/04/28 14:20:18;;;;;;;8.98;5.18;;;;;;;;;;5121535;28;20452;-42
2021/04/28 14:22:44;;;;;;;8.80;4.90;;;;;;;;;;5120362;28;20177;-43
2021/04/28 14:25:10;;;;;;;7.18;5.35;;;;;;;;;;5119637;28;20331;-42
2021/04/28 14:27:36;;;;;;;8.48;4.43;;;;;;;;;;5107954;28;20213;-42
2021/04/28 14:30:03;;;;;;;7.25;4.75;;;;;;;;;;5104200;28;20251;-42
2021/04/28 14:32:30;;;;;;;6.65;4.95;;;;;;;;;;5120675;28;20218;-43
2021/04/28 14:34:56;;;;;;;7.75;4.88;;;;;;;;;;5121363;28;20192;-42
2021/04/28 14:37:22;;;;;;;6.85;4.57;;;;;;;;;;5121028;28;20839;-42